Terminal Aerodrome Forecast
Issued by NWS

Home | Current Version | Previous Version | Text Only | Print | Product List | Glossary On
Versions: 1 2 3 4 5 6 7 8 9 10 11 12 13
000
FTUS46 KSEW 051730
TAFBLI
TAF
KBLI 051730Z 0518/0618 02010G20KT P6SM FEW150 BKN200
     FM052000 36010KT P6SM SCT200
     FM060000 28006KT P6SM FEW200
     FM060300 18004KT P6SM FEW200=

USA.gov is the U.S. government's official web portal to all federal, state and local government web resources and services.